createdAt,value
2023-05-14T00:02:36.182Z,11.67
2023-05-14T00:05:24.926Z,11.68
2023-05-14T00:08:13.288Z,11.64
2023-05-14T00:11:01.601Z,11.65
2023-05-14T00:13:50.450Z,11.67
2023-05-14T00:16:40.127Z,11.64
2023-05-14T00:19:28.569Z,11.62
2023-05-14T00:22:16.946Z,11.59
2023-05-14T00:25:06.521Z,11.58
2023-05-14T00:27:54.922Z,11.58
2023-05-14T00:30:43.401Z,11.52
2023-05-14T00:33:33.654Z,11.59
2023-05-14T00:36:22.084Z,11.59
2023-05-14T00:39:11.059Z,11.56
2023-05-14T00:41:59.957Z,11.46
2023-05-14T00:44:48.331Z,11.50
2023-05-14T00:47:37.425Z,11.51
2023-05-14T00:50:27.559Z,11.46
2023-05-14T00:53:16.048Z,11.43
2023-05-14T00:56:04.664Z,11.44
2023-05-14T00:58:53.336Z,11.43
2023-05-14T01:01:41.866Z,11.39
2023-05-14T01:04:30.369Z,11.41
2023-05-14T01:07:24.453Z,11.41
2023-05-14T01:10:15.982Z,11.41
2023-05-14T01:13:09.465Z,11.38
2023-05-14T01:15:58.730Z,11.35
2023-05-14T01:18:48.619Z,11.40
2023-05-14T01:21:44.426Z,11.37
2023-05-14T01:24:32.890Z,11.36
2023-05-14T01:27:27.326Z,11.36
2023-05-14T01:30:22.710Z,11.35
2023-05-14T01:33:12.647Z,11.38
2023-05-14T01:36:01.329Z,11.39
2023-05-14T01:38:51.543Z,11.43
2023-05-14T01:41:41.053Z,11.42
2023-05-14T01:44:29.427Z,11.45
2023-05-14T01:47:17.842Z,11.45
2023-05-14T01:50:07.154Z,11.45
2023-05-14T01:52:56.584Z,11.48
2023-05-14T01:55:46.612Z,11.48
2023-05-14T01:58:35.200Z,11.49
2023-05-14T02:01:23.950Z,11.53
2023-05-14T02:04:12.424Z,11.48
2023-05-14T02:07:03.126Z,11.46
2023-05-14T02:09:51.510Z,11.45
2023-05-14T02:12:41.421Z,11.52
2023-05-14T02:15:29.923Z,11.52
2023-05-14T02:18:18.351Z,11.55
2023-05-14T02:21:06.785Z,11.56
2023-05-14T02:23:56.159Z,11.53
2023-05-14T02:26:44.601Z,11.53
2023-05-14T02:29:34.389Z,11.49
2023-05-14T02:32:23.365Z,11.44
2023-05-14T02:35:12.163Z,11.41
2023-05-14T02:38:00.822Z,11.41
2023-05-14T02:40:49.772Z,11.44
2023-05-14T02:43:38.124Z,11.37
2023-05-14T02:46:27.933Z,11.37
2023-05-14T02:49:16.826Z,11.35
2023-05-14T02:52:05.616Z,11.36
2023-05-14T02:54:54.023Z,11.31
2023-05-14T02:57:42.393Z,11.33
2023-05-14T03:00:30.781Z,11.31
2023-05-14T03:03:21.440Z,11.31
2023-05-14T03:06:10.169Z,11.29
2023-05-14T03:08:58.525Z,11.31
2023-05-14T03:11:46.983Z,11.30
2023-05-14T03:14:35.372Z,11.29
2023-05-14T03:17:23.805Z,11.31
2023-05-14T03:20:14.395Z,11.31
2023-05-14T03:23:02.879Z,11.28
2023-05-14T03:25:51.311Z,11.25
2023-05-14T03:28:39.742Z,11.21
2023-05-14T03:31:28.233Z,11.20
2023-05-14T03:34:18.058Z,11.03
2023-05-14T03:37:07.775Z,10.90
2023-05-14T03:39:56.141Z,10.86
2023-05-14T03:42:44.550Z,10.95
2023-05-14T03:45:33.281Z,10.93
2023-05-14T03:48:21.753Z,10.74
2023-05-14T03:51:10.216Z,10.54
2023-05-14T03:53:59.952Z,10.54
2023-05-14T03:56:49.030Z,10.59
2023-05-14T03:59:37.357Z,10.62
2023-05-14T04:02:26.154Z,10.63
2023-05-14T04:05:40.113Z,10.70
2023-05-14T04:08:28.461Z,10.69
2023-05-14T04:11:19.345Z,10.71
2023-05-14T04:14:07.789Z,10.74
2023-05-14T04:16:56.192Z,10.88
2023-05-14T04:19:44.564Z,10.92
2023-05-14T04:22:33.138Z,10.86
2023-05-14T04:25:21.994Z,10.61
2023-05-14T04:28:11.933Z,10.60
2023-05-14T04:31:00.312Z,10.59
2023-05-14T04:33:48.757Z,10.70
2023-05-14T04:36:37.231Z,10.72
2023-05-14T04:39:25.978Z,10.55
2023-05-14T04:42:14.332Z,10.50
2023-05-14T04:45:05.270Z,10.54
2023-05-14T04:47:53.755Z,10.60
2023-05-14T04:50:42.160Z,10.51
2023-05-14T04:53:30.467Z,10.43
2023-05-14T04:56:19.008Z,10.41
2023-05-14T04:59:07.358Z,10.33
2023-05-14T05:01:57.103Z,10.42
2023-05-14T05:04:45.432Z,10.47
2023-05-14T05:07:33.793Z,10.53
2023-05-14T05:10:22.607Z,10.55
2023-05-14T05:13:11.173Z,10.60
2023-05-14T05:15:59.723Z,10.72
2023-05-14T05:18:49.681Z,10.88
2023-05-14T05:21:40.279Z,10.98
2023-05-14T05:24:28.613Z,10.99
2023-05-14T05:27:16.974Z,11.05
2023-05-14T05:30:06.537Z,10.91
2023-05-14T05:32:57.024Z,10.75
2023-05-14T05:35:48.255Z,10.72
2023-05-14T05:38:36.635Z,10.73
2023-05-14T05:41:24.926Z,10.85
2023-05-14T05:44:13.286Z,11.00
2023-05-14T05:47:01.731Z,11.01
2023-05-14T05:49:50.655Z,10.97
2023-05-14T05:52:40.596Z,10.83
2023-05-14T05:55:29.735Z,10.81
2023-05-14T05:58:18.145Z,10.86
2023-05-14T06:01:06.612Z,10.88
2023-05-14T06:03:54.949Z,10.94
2023-05-14T06:06:43.502Z,10.84
2023-05-14T06:09:33.216Z,10.76
2023-05-14T06:12:21.820Z,10.93
2023-05-14T06:15:12.124Z,10.85
2023-05-14T06:18:00.753Z,10.74
2023-05-14T06:20:49.133Z,10.72
2023-05-14T06:23:37.841Z,10.70
2023-05-14T06:26:27.615Z,10.81
2023-05-14T06:29:15.924Z,10.82
2023-05-14T06:32:05.209Z,10.95
2023-05-14T06:34:53.574Z,10.97
2023-05-14T06:37:41.904Z,11.09
2023-05-14T06:40:30.272Z,11.03
2023-05-14T06:43:20.090Z,11.20
2023-05-14T06:46:08.451Z,11.10
2023-05-14T06:48:59.197Z,11.05
2023-05-14T06:51:48.097Z,11.11
2023-05-14T06:54:36.440Z,11.05
2023-05-14T06:57:24.814Z,11.07
2023-05-14T07:00:16.113Z,11.08
2023-05-14T07:03:04.537Z,11.18
2023-05-14T07:05:52.891Z,11.23
2023-05-14T07:08:41.352Z,11.31
2023-05-14T07:11:29.788Z,11.22
2023-05-14T07:14:18.278Z,11.14
2023-05-14T07:17:08.053Z,11.31
2023-05-14T07:19:56.569Z,11.40
2023-05-14T07:22:45.054Z,11.38
2023-05-14T07:25:33.891Z,11.35
2023-05-14T07:28:22.241Z,11.54
2023-05-14T07:31:10.875Z,11.71
2023-05-14T07:34:00.665Z,11.85
2023-05-14T07:36:49.165Z,11.99
2023-05-14T07:39:37.538Z,11.96
2023-05-14T07:42:35.981Z,11.99
2023-05-14T07:45:25.557Z,12.19
2023-05-14T07:48:13.970Z,12.39
2023-05-14T07:51:03.781Z,12.28
2023-05-14T07:53:52.120Z,12.44
2023-05-14T07:56:40.441Z,12.48
2023-05-14T07:59:28.859Z,12.31
2023-05-14T08:02:17.627Z,12.51
2023-05-14T08:05:06.978Z,12.51
2023-05-14T08:07:56.779Z,12.56
2023-05-14T08:10:45.268Z,12.71
2023-05-14T08:13:33.713Z,12.59
2023-05-14T08:16:22.108Z,12.57
2023-05-14T08:19:10.524Z,12.62
2023-05-14T08:21:58.954Z,12.59
2023-05-14T08:24:48.888Z,12.65
2023-05-14T08:27:37.412Z,12.70
2023-05-14T08:30:25.997Z,12.69
2023-05-14T08:33:14.716Z,12.79
2023-05-14T08:36:03.142Z,12.84
2023-05-14T08:38:51.606Z,12.84
2023-05-14T08:41:41.354Z,12.97
2023-05-14T08:44:34.371Z,13.03
2023-05-14T08:47:24.015Z,13.02
2023-05-14T08:50:12.679Z,13.03
2023-05-14T08:53:01.137Z,12.87
2023-05-14T08:55:51.392Z,12.97
2023-05-14T08:58:41.148Z,13.04
2023-05-14T09:01:30.050Z,13.17
2023-05-14T09:04:22.246Z,13.13
2023-05-14T09:07:11.414Z,13.30
2023-05-14T09:10:00.372Z,13.05
2023-05-14T09:12:48.741Z,13.10
2023-05-14T09:15:38.816Z,13.21
2023-05-14T09:18:27.189Z,13.05
2023-05-14T09:21:15.907Z,13.20
2023-05-14T09:24:04.764Z,13.01
2023-05-14T09:26:54.451Z,13.18
2023-05-14T09:29:43.509Z,13.30
2023-05-14T09:32:38.472Z,13.43
2023-05-14T09:35:26.899Z,13.56
2023-05-14T09:38:15.247Z,13.45
2023-05-14T09:41:04.216Z,13.68
2023-05-14T09:43:52.824Z,13.70
2023-05-14T09:46:41.215Z,13.77
2023-05-14T09:49:31.028Z,13.97
2023-05-14T09:52:19.986Z,14.04
2023-05-14T09:55:09.289Z,14.01
2023-05-14T09:57:57.677Z,14.19
2023-05-14T10:00:47.751Z,14.37
2023-05-14T10:03:36.413Z,14.41
2023-05-14T10:06:28.914Z,14.41
2023-05-14T10:09:17.935Z,14.45
2023-05-14T10:12:07.343Z,14.66
2023-05-14T10:14:58.842Z,14.86
2023-05-14T10:17:50.704Z,14.60
2023-05-14T10:20:39.486Z,14.64
2023-05-14T10:23:29.272Z,14.58
2023-05-14T10:26:17.801Z,14.77
2023-05-14T10:29:06.154Z,15.01
2023-05-14T10:31:55.567Z,15.10
2023-05-14T10:34:44.882Z,15.17
2023-05-14T10:37:34.060Z,15.34
2023-05-14T10:40:26.190Z,15.36
2023-05-14T10:43:16.009Z,15.27
2023-05-14T10:46:05.261Z,15.28
2023-05-14T10:48:53.816Z,15.00
2023-05-14T10:51:42.378Z,14.96
2023-05-14T10:54:30.891Z,15.08
2023-05-14T10:57:21.296Z,15.27
2023-05-14T11:00:10.920Z,15.23
2023-05-14T11:02:59.652Z,15.42
2023-05-14T11:05:48.189Z,15.69
2023-05-14T11:08:36.590Z,15.83
2023-05-14T11:11:26.136Z,15.65
2023-05-14T11:14:15.875Z,15.70
2023-05-14T11:17:04.257Z,15.99
2023-05-14T11:19:52.717Z,16.10
2023-05-14T11:22:42.678Z,15.99
2023-05-14T11:25:31.227Z,15.99
2023-05-14T11:28:19.607Z,16.19
2023-05-14T11:31:09.286Z,16.22
2023-05-14T11:33:58.131Z,16.24
2023-05-14T11:36:46.711Z,16.18
2023-05-14T11:39:19.543Z,16.26
2023-05-14T11:41:47.607Z,16.18
2023-05-14T11:44:15.696Z,16.19
2023-05-14T11:47:05.034Z,16.22
2023-05-14T11:49:51.682Z,16.49
2023-05-14T11:52:40.279Z,16.47
2023-05-14T11:55:12.217Z,16.65
2023-05-14T11:57:58.984Z,16.64
2023-05-14T12:00:27.801Z,16.72
2023-05-14T12:02:57.407Z,16.65
2023-05-14T12:05:56.511Z,16.65
2023-05-14T12:08:27.666Z,16.83
2023-05-14T12:10:55.889Z,16.92
2023-05-14T12:13:27.337Z,17.01
2023-05-14T12:15:56.750Z,17.00
2023-05-14T12:18:44.679Z,17.01
2023-05-14T12:21:12.744Z,16.89
2023-05-14T12:23:40.976Z,16.82
2023-05-14T12:26:28.721Z,16.79
2023-05-14T12:29:17.619Z,16.99
2023-05-14T12:32:09.661Z,17.07
2023-05-14T12:34:47.270Z,17.08
2023-05-14T12:37:34.095Z,17.10
2023-05-14T12:40:02.227Z,17.07
2023-05-14T12:42:30.186Z,17.05
2023-05-14T12:44:58.510Z,17.23
2023-05-14T12:47:45.383Z,17.48
2023-05-14T12:50:14.884Z,17.24
2023-05-14T12:52:42.980Z,17.57
2023-05-14T12:55:29.515Z,17.79
2023-05-14T12:57:57.844Z,17.74
2023-05-14T13:00:27.081Z,17.72
2023-05-14T13:02:55.118Z,17.91
2023-05-14T13:05:24.731Z,18.09
2023-05-14T13:07:53.844Z,18.10
2023-05-14T13:10:23.152Z,18.29
2023-05-14T13:12:52.720Z,18.21
2023-05-14T13:15:20.845Z,18.24
2023-05-14T13:17:49.466Z,18.20
2023-05-14T13:20:18.410Z,17.93
2023-05-14T13:22:47.914Z,17.99
2023-05-14T13:25:16.132Z,18.18
2023-05-14T13:27:44.116Z,18.25
2023-05-14T13:30:12.817Z,18.30
2023-05-14T13:32:42.247Z,18.40
2023-05-14T13:35:10.739Z,18.57
2023-05-14T13:37:39.026Z,18.69
2023-05-14T13:40:11.348Z,18.79
2023-05-14T13:42:40.683Z,18.80
2023-05-14T13:45:09.626Z,18.42
2023-05-14T13:47:38.058Z,18.77
2023-05-14T13:50:07.704Z,18.96
2023-05-14T13:52:35.896Z,18.77
2023-05-14T13:55:04.014Z,18.91
2023-05-14T13:57:33.418Z,18.87
2023-05-14T14:00:01.646Z,18.96
2023-05-14T14:02:34.175Z,19.04
2023-05-14T14:05:02.396Z,19.09
2023-05-14T14:07:30.597Z,19.14
2023-05-14T14:10:01.466Z,19.09
2023-05-14T14:12:30.053Z,19.17
2023-05-14T14:14:59.576Z,19.15
2023-05-14T14:17:27.716Z,19.13
2023-05-14T14:19:55.756Z,18.81
2023-05-14T14:22:27.116Z,18.98
2023-05-14T14:24:57.056Z,19.00
2023-05-14T14:27:25.060Z,19.02
2023-05-14T14:29:53.065Z,18.75
2023-05-14T14:32:22.439Z,18.10
2023-05-14T14:34:50.422Z,17.61
2023-05-14T14:37:18.822Z,17.35
2023-05-14T14:39:47.634Z,16.85
2023-05-14T14:42:15.640Z,16.68
2023-05-14T14:44:43.653Z,16.46
2023-05-14T14:47:11.625Z,16.37
2023-05-14T14:49:41.013Z,16.20
2023-05-14T14:52:09.701Z,16.08
2023-05-14T14:54:37.766Z,15.83
2023-05-14T14:57:06.386Z,15.45
2023-05-14T14:59:36.260Z,15.14
2023-05-14T15:02:04.738Z,15.13
2023-05-14T15:04:34.752Z,14.96
2023-05-14T15:07:04.190Z,14.77
2023-05-14T15:09:32.386Z,14.42
2023-05-14T15:12:00.554Z,14.06
2023-05-14T15:14:28.683Z,13.79
2023-05-14T15:16:56.706Z,13.73
2023-05-14T15:19:24.771Z,13.71
2023-05-14T15:21:52.947Z,13.69
2023-05-14T15:24:23.975Z,13.69
2023-05-14T15:26:53.428Z,13.49
2023-05-14T15:29:22.439Z,13.51
2023-05-14T15:31:50.540Z,13.25
2023-05-14T15:34:18.577Z,13.42
2023-05-14T15:36:46.602Z,13.55
2023-05-14T15:39:14.724Z,13.57
2023-05-14T15:41:44.169Z,13.49
2023-05-14T15:44:12.210Z,13.60
2023-05-14T15:46:40.318Z,13.63
2023-05-14T15:49:09.200Z,13.67
2023-05-14T15:51:37.270Z,13.57
2023-05-14T15:54:05.312Z,13.70
2023-05-14T15:56:33.390Z,13.74
2023-05-14T15:59:03.300Z,13.70
2023-05-14T16:01:31.909Z,13.61
2023-05-14T16:04:00.062Z,13.75
2023-05-14T16:06:28.121Z,13.56
2023-05-14T16:08:57.217Z,13.45
2023-05-14T16:11:25.329Z,13.49
2023-05-14T16:13:53.352Z,13.52
2023-05-14T16:16:23.264Z,13.31
2023-05-14T16:18:51.328Z,13.26
2023-05-14T16:21:19.353Z,13.16
2023-05-14T16:23:47.415Z,13.32
2023-05-14T16:26:15.453Z,13.31
2023-05-14T16:28:43.521Z,13.36
2023-05-14T16:31:11.594Z,13.40
2023-05-14T16:33:41.076Z,13.29
2023-05-14T16:36:09.343Z,13.46
2023-05-14T16:38:44.546Z,13.54
2023-05-14T16:41:21.543Z,13.50
2023-05-14T16:43:51.175Z,13.51
2023-05-14T16:46:19.264Z,13.62
2023-05-14T16:48:50.612Z,13.69
2023-05-14T16:51:18.625Z,13.80
2023-05-14T16:53:46.775Z,13.87
2023-05-14T16:56:14.785Z,13.84
2023-05-14T16:58:42.977Z,13.87
2023-05-14T17:01:11.059Z,13.81
2023-05-14T17:03:39.134Z,13.91
2023-05-14T17:06:11.533Z,13.94
2023-05-14T17:08:39.563Z,13.97
2023-05-14T17:11:07.533Z,13.95
2023-05-14T17:13:35.700Z,13.93
2023-05-14T17:16:03.761Z,13.92
2023-05-14T17:18:32.688Z,13.81
2023-05-14T17:21:00.753Z,13.87
2023-05-14T17:23:30.130Z,13.90
2023-05-14T17:25:58.293Z,13.96
2023-05-14T17:28:28.067Z,14.01
2023-05-14T17:30:56.219Z,13.93
2023-05-14T17:33:24.306Z,13.95
2023-05-14T17:35:52.347Z,13.87
2023-05-14T17:38:20.372Z,13.93
2023-05-14T17:40:49.723Z,13.82
2023-05-14T17:43:17.767Z,13.86
2023-05-14T17:45:54.041Z,13.89
2023-05-14T17:48:23.227Z,13.74
2023-05-14T17:50:51.599Z,13.82
2023-05-14T17:53:19.726Z,13.78
2023-05-14T17:55:50.171Z,13.76
2023-05-14T17:58:18.256Z,13.73
2023-05-14T18:00:46.283Z,13.75
2023-05-14T18:03:15.156Z,13.66
2023-05-14T18:05:43.410Z,13.71
2023-05-14T18:08:11.684Z,13.77
2023-05-14T18:10:39.671Z,13.62
2023-05-14T18:13:09.191Z,13.61
2023-05-14T18:15:37.577Z,13.68
2023-05-14T18:18:06.456Z,13.73
2023-05-14T18:20:35.554Z,13.72
2023-05-14T18:23:03.896Z,13.72
2023-05-14T18:25:32.104Z,13.69
2023-05-14T18:28:00.363Z,13.69
2023-05-14T18:30:29.999Z,13.53
2023-05-14T18:32:59.634Z,13.56
2023-05-14T18:35:28.043Z,13.58
2023-05-14T18:37:56.317Z,13.58
2023-05-14T18:40:24.524Z,13.54
2023-05-14T18:42:52.729Z,13.52
2023-05-14T18:45:22.063Z,13.52
2023-05-14T18:47:51.805Z,13.45
2023-05-14T18:50:20.233Z,13.40
2023-05-14T18:52:48.376Z,13.35
2023-05-14T18:55:16.681Z,13.18
2023-05-14T18:57:44.852Z,13.24
2023-05-14T19:00:14.372Z,13.25
2023-05-14T19:02:42.757Z,13.21
2023-05-14T19:05:12.409Z,13.20
2023-05-14T19:07:40.954Z,13.15
2023-05-14T19:10:10.366Z,13.09
2023-05-14T19:12:38.544Z,13.05
2023-05-14T19:15:07.866Z,13.06
2023-05-14T19:17:37.068Z,13.05
2023-05-14T19:20:06.449Z,13.08
2023-05-14T19:22:36.020Z,13.11
2023-05-14T19:25:05.136Z,13.11
2023-05-14T19:27:34.210Z,13.12
2023-05-14T19:30:02.368Z,13.09
2023-05-14T19:32:30.512Z,13.13
2023-05-14T19:34:58.805Z,13.09
2023-05-14T19:37:26.971Z,13.08
2023-05-14T19:39:56.585Z,13.08
2023-05-14T19:42:25.011Z,13.09
2023-05-14T19:44:53.407Z,13.09
2023-05-14T19:47:21.574Z,13.09
2023-05-14T19:49:49.755Z,12.88
2023-05-14T19:52:17.926Z,12.95
2023-05-14T19:54:46.074Z,12.78
2023-05-14T19:57:15.652Z,12.88
2023-05-14T19:59:44.468Z,12.91
2023-05-14T20:02:18.373Z,12.97
2023-05-14T20:04:47.496Z,12.99
2023-05-14T20:07:16.370Z,12.84
2023-05-14T20:09:44.676Z,12.85
2023-05-14T20:12:13.324Z,12.90
2023-05-14T20:14:43.577Z,12.94
2023-05-14T20:17:11.819Z,12.96
2023-05-14T20:19:40.013Z,12.98
2023-05-14T20:22:08.193Z,13.00
2023-05-14T20:24:36.349Z,13.00
2023-05-14T20:27:04.635Z,13.01
2023-05-14T20:29:32.790Z,13.00
2023-05-14T20:32:02.354Z,12.93
2023-05-14T20:34:30.511Z,12.74
2023-05-14T20:36:58.690Z,12.80
2023-05-14T20:39:26.857Z,12.83
2023-05-14T20:41:55.113Z,12.85
2023-05-14T20:44:23.285Z,12.84
2023-05-14T20:46:51.628Z,12.82
2023-05-14T20:49:21.183Z,12.83
2023-05-14T20:51:49.324Z,12.60
2023-05-14T20:54:17.608Z,12.62
2023-05-14T20:56:45.782Z,12.35
2023-05-14T20:59:13.922Z,12.17
2023-05-14T21:01:42.669Z,12.14
2023-05-14T21:04:11.015Z,12.01
2023-05-14T21:06:40.605Z,12.16
2023-05-14T21:09:08.799Z,12.33
2023-05-14T21:11:36.995Z,12.24
2023-05-14T21:14:05.978Z,12.08
2023-05-14T21:16:34.208Z,12.26
2023-05-14T21:19:02.500Z,12.39
2023-05-14T21:21:30.851Z,12.46
2023-05-14T21:24:00.362Z,12.51
2023-05-14T21:26:32.731Z,12.53
2023-05-14T21:29:01.630Z,12.56
2023-05-14T21:31:29.964Z,12.59
2023-05-14T21:33:58.176Z,12.59
2023-05-14T21:36:26.435Z,12.60
2023-05-14T21:38:54.628Z,12.61
2023-05-14T21:41:24.326Z,12.62
2023-05-14T21:43:52.636Z,12.63
2023-05-14T21:46:20.870Z,12.61
2023-05-14T21:48:49.094Z,12.60
2023-05-14T21:51:17.371Z,12.61
2023-05-14T21:53:46.308Z,12.58
2023-05-14T21:56:14.531Z,12.59
2023-05-14T21:58:44.159Z,12.57
2023-05-14T22:01:12.466Z,12.57
2023-05-14T22:03:40.756Z,12.57
2023-05-14T22:06:09.023Z,12.54
2023-05-14T22:08:37.236Z,12.52
2023-05-14T22:11:05.705Z,12.50
2023-05-14T22:13:35.366Z,12.51
2023-05-14T22:16:12.786Z,12.53
2023-05-14T22:18:42.668Z,12.53
2023-05-14T22:21:10.928Z,12.53
2023-05-14T22:23:39.192Z,12.53
2023-05-14T22:26:07.395Z,12.54
2023-05-14T22:28:36.771Z,12.53
2023-05-14T22:31:06.437Z,12.54
2023-05-14T22:33:34.599Z,12.53
2023-05-14T22:36:03.293Z,12.52
2023-05-14T22:38:31.511Z,12.47
2023-05-14T22:40:59.797Z,12.45
2023-05-14T22:43:27.981Z,12.45
2023-05-14T22:45:56.122Z,12.44
2023-05-14T22:48:25.769Z,12.30
2023-05-14T22:50:53.933Z,12.02
2023-05-14T22:53:22.499Z,12.00
2023-05-14T22:55:51.519Z,12.13
2023-05-14T22:58:19.731Z,12.06
2023-05-14T23:00:47.996Z,12.11
2023-05-14T23:03:16.163Z,11.89
2023-05-14T23:05:45.665Z,12.04
2023-05-14T23:08:13.784Z,12.11
2023-05-14T23:10:42.025Z,12.19
2023-05-14T23:13:10.670Z,12.06
2023-05-14T23:15:39.732Z,12.09
2023-05-14T23:18:08.920Z,12.00
2023-05-14T23:20:37.112Z,12.09
2023-05-14T23:23:06.955Z,12.04
2023-05-14T23:25:35.145Z,12.17
2023-05-14T23:28:03.300Z,12.25
2023-05-14T23:30:31.498Z,12.23
2023-05-14T23:32:59.683Z,12.25
2023-05-14T23:35:28.002Z,12.25
2023-05-14T23:37:56.193Z,12.23
2023-05-14T23:40:25.788Z,12.23
2023-05-14T23:42:54.208Z,12.21
2023-05-14T23:45:22.568Z,11.86
2023-05-14T23:47:50.940Z,11.85
2023-05-14T23:50:19.144Z,11.53
2023-05-14T23:52:47.300Z,11.57
2023-05-14T23:55:15.774Z,11.67
2023-05-14T23:57:45.414Z,11.75
